createdAt,value
2018-11-03T00:03:58.863Z,10.70
2018-11-03T00:09:02.699Z,10.65
2018-11-03T00:14:06.581Z,10.58
2018-11-03T00:19:10.757Z,10.60
2018-11-03T00:24:14.875Z,10.03
2018-11-03T00:29:19.543Z,10.68
2018-11-03T00:34:24.158Z,10.50
2018-11-03T00:39:28.231Z,10.10
2018-11-03T00:44:32.665Z,9.73
2018-11-03T00:49:37.851Z,9.93
2018-11-03T00:54:41.949Z,10.37
2018-11-03T00:59:46.102Z,10.00
2018-11-03T01:04:50.590Z,9.97
2018-11-03T01:09:55.013Z,9.63
2018-11-03T01:14:59.130Z,9.30
2018-11-03T01:20:07.681Z,9.17
2018-11-03T01:25:12.367Z,9.10
2018-11-03T01:30:17.410Z,9.00
2018-11-03T01:35:21.860Z,9.87
2018-11-03T01:40:26.278Z,9.70
2018-11-03T01:45:31.057Z,9.40
2018-11-03T01:50:35.441Z,9.60
2018-11-03T01:55:39.908Z,9.05
2018-11-03T02:00:44.694Z,9.20
2018-11-03T02:05:48.793Z,9.30
2018-11-03T02:10:53.261Z,8.87
2018-11-03T02:15:57.715Z,9.17
2018-11-03T02:21:02.209Z,9.63
2018-11-03T02:26:06.390Z,8.70
2018-11-03T02:31:10.554Z,8.60
2018-11-03T02:36:14.751Z,9.33
2018-11-03T02:41:19.519Z,9.33
2018-11-03T02:46:24.292Z,9.40
2018-11-03T02:51:28.510Z,9.27
2018-11-03T02:56:33.326Z,10.60
2018-11-03T03:01:37.823Z,10.43
2018-11-03T03:06:42.711Z,10.97
2018-11-03T03:11:47.373Z,10.23
2018-11-03T03:16:51.484Z,11.17
2018-11-03T03:21:55.631Z,12.20
2018-11-03T03:27:00.029Z,12.10
2018-11-03T03:32:04.280Z,12.47
2018-11-03T03:37:08.775Z,13.37
2018-11-03T03:42:13.482Z,13.17
2018-11-03T03:47:17.652Z,12.73
2018-11-03T03:52:21.794Z,13.60
2018-11-03T03:57:26.242Z,12.93
2018-11-03T04:02:30.815Z,12.80
2018-11-03T04:07:35.194Z,11.93
2018-11-03T04:12:39.551Z,13.08
2018-11-03T04:17:44.231Z,13.25
2018-11-03T04:22:50.490Z,12.28
2018-11-03T04:27:54.326Z,12.82
2018-11-03T04:32:58.462Z,12.45
2018-11-03T04:38:02.611Z,12.03
2018-11-03T04:43:07.061Z,11.60
2018-11-03T04:48:11.265Z,11.97
2018-11-03T04:53:15.595Z,11.95
2018-11-03T04:58:20.359Z,12.00
2018-11-03T05:03:25.333Z,11.57
2018-11-03T05:08:29.447Z,11.73
2018-11-03T05:13:33.837Z,12.07
2018-11-03T05:18:38.355Z,12.10
2018-11-03T05:23:42.809Z,12.03
2018-11-03T05:28:46.915Z,12.65
2018-11-03T05:33:51.020Z,13.10
2018-11-03T05:38:55.702Z,12.50
2018-11-03T05:43:59.989Z,12.03
2018-11-03T05:49:04.459Z,12.33
2018-11-03T05:54:08.827Z,12.20
2018-11-03T05:59:13.577Z,12.10
2018-11-03T06:04:18.181Z,11.28
2018-11-03T06:09:22.474Z,11.80
2018-11-03T06:14:26.847Z,11.97
2018-11-03T06:19:31.272Z,11.77
2018-11-03T06:24:38.307Z,11.33
2018-11-03T06:29:42.898Z,11.43
2018-11-03T06:34:47.108Z,12.50
2018-11-03T06:39:51.640Z,12.00
2018-11-03T06:44:56.168Z,11.50
2018-11-03T06:50:00.904Z,11.55
2018-11-03T06:55:06.223Z,11.68
2018-11-03T07:00:11.396Z,12.18
2018-11-03T07:05:16.158Z,11.60
2018-11-03T07:10:20.627Z,12.53
2018-11-03T07:15:25.002Z,11.73
2018-11-03T07:20:29.774Z,11.97
2018-11-03T07:25:34.230Z,12.80
2018-11-03T07:30:38.728Z,12.33
2018-11-03T07:35:42.900Z,12.43
2018-11-03T07:40:47.100Z,12.50
2018-11-03T07:45:53.404Z,12.63
2018-11-03T07:50:58.099Z,13.13
2018-11-03T07:56:02.232Z,12.60
2018-11-03T08:01:06.721Z,12.45
2018-11-03T08:06:10.871Z,14.63
2018-11-03T08:11:15.824Z,14.10
2018-11-03T08:16:19.934Z,15.73
2018-11-03T08:21:24.670Z,14.70
2018-11-03T08:26:29.221Z,13.95
2018-11-03T08:31:33.679Z,15.00
2018-11-03T08:36:38.258Z,15.10
2018-11-03T08:41:42.373Z,15.30
2018-11-03T08:46:47.023Z,14.70
2018-11-03T08:51:50.856Z,16.27
2018-11-03T08:56:55.573Z,16.87
2018-11-03T09:02:00.093Z,15.23
2018-11-03T09:07:05.363Z,15.67
2018-11-03T09:12:09.874Z,15.27
2018-11-03T09:17:13.979Z,15.87
2018-11-03T09:22:18.917Z,16.57
2018-11-03T09:27:22.835Z,16.53
2018-11-03T09:32:27.668Z,17.37
2018-11-03T09:37:31.793Z,17.43
2018-11-03T09:42:36.351Z,15.83
2018-11-03T09:47:41.170Z,15.80
2018-11-03T09:52:45.645Z,16.97
2018-11-03T09:57:50.168Z,16.93
2018-11-03T10:02:54.452Z,15.53
2018-11-03T10:07:58.891Z,13.95
2018-11-03T10:13:03.186Z,15.20
2018-11-03T10:18:08.134Z,15.53
2018-11-03T10:23:19.408Z,14.63
2018-11-03T10:28:23.670Z,14.83
2018-11-03T10:33:27.851Z,14.43
2018-11-03T10:38:32.374Z,14.10
2018-11-03T10:43:37.023Z,12.93
2018-11-03T10:48:41.534Z,11.93
2018-11-03T10:53:46.022Z,11.70
2018-11-03T10:58:50.780Z,11.43
2018-11-03T11:04:00.672Z,10.88
2018-11-03T11:09:11.912Z,10.40
2018-11-03T11:14:16.712Z,9.83
2018-11-03T11:19:21.094Z,10.72
2018-11-03T11:24:25.525Z,10.90
2018-11-03T11:29:32.341Z,9.53
2018-11-03T11:34:36.988Z,9.40
2018-11-03T11:39:41.485Z,5.63
2018-11-03T11:44:46.018Z,6.67
2018-11-03T11:49:50.567Z,6.42
2018-11-03T11:54:55.319Z,6.40
2018-11-03T12:00:00.320Z,6.50
2018-11-03T12:05:04.600Z,6.40
2018-11-03T12:10:09.322Z,5.77
2018-11-03T12:15:14.114Z,5.87
2018-11-03T12:20:18.907Z,5.25
2018-11-03T12:25:25.001Z,4.60
2018-11-03T12:30:30.042Z,5.63
2018-11-03T12:35:34.956Z,4.77
2018-11-03T12:40:39.615Z,4.80
2018-11-03T12:45:44.382Z,4.70
2018-11-03T12:50:48.907Z,4.87
2018-11-03T12:55:53.142Z,5.15
2018-11-03T13:00:57.348Z,4.62
2018-11-03T13:06:01.560Z,4.55
2018-11-03T13:11:06.042Z,5.43
2018-11-03T13:16:10.502Z,4.70
2018-11-03T13:21:15.714Z,5.00
2018-11-03T13:26:20.266Z,4.78
2018-11-03T13:31:25.176Z,4.53
2018-11-03T13:36:29.686Z,4.53
2018-11-03T13:41:33.909Z,4.10
2018-11-03T13:46:38.373Z,3.92
2018-11-03T13:51:42.880Z,4.00
2018-11-03T13:56:47.433Z,4.50
2018-11-03T14:01:52.221Z,4.63
2018-11-03T14:06:56.718Z,3.62
2018-11-03T14:12:01.379Z,3.97
2018-11-03T14:17:05.987Z,3.60
2018-11-03T14:22:10.049Z,3.92
2018-11-03T14:27:16.411Z,4.07
2018-11-03T14:32:20.626Z,3.45
2018-11-03T14:37:25.196Z,4.75
2018-11-03T14:42:29.748Z,4.43
2018-11-03T14:47:34.668Z,5.10
2018-11-03T14:52:41.053Z,4.50
2018-11-03T14:57:45.826Z,4.33
2018-11-03T15:02:50.435Z,4.20
2018-11-03T15:07:54.937Z,3.67
2018-11-03T15:12:59.525Z,3.97
2018-11-03T15:18:04.053Z,3.47
2018-11-03T15:23:08.269Z,3.55
2018-11-03T15:28:14.050Z,3.47
2018-11-03T15:33:18.351Z,4.00
2018-11-03T15:38:22.818Z,3.60
2018-11-03T15:43:27.635Z,3.40
2018-11-03T15:48:32.451Z,3.30
2018-11-03T15:53:36.975Z,3.02
2018-11-03T15:58:42.034Z,3.40
2018-11-03T16:03:47.189Z,3.60
2018-11-03T16:08:51.789Z,19.62
2018-11-03T16:13:56.269Z,8.13
2018-11-03T16:19:00.818Z,11.80
2018-11-03T16:24:05.386Z,7.47
2018-11-03T16:29:09.928Z,4.93
2018-11-03T16:34:14.176Z,4.28
2018-11-03T16:39:18.417Z,5.15
2018-11-03T16:44:22.614Z,5.37
2018-11-03T16:49:26.795Z,6.03
2018-11-03T16:54:31.163Z,8.73
2018-11-03T16:59:35.443Z,10.40
2018-11-03T17:04:39.986Z,14.03
2018-11-03T17:09:44.242Z,15.53
2018-11-03T17:14:48.512Z,16.23
2018-11-03T17:19:52.802Z,15.75
2018-11-03T17:24:57.565Z,14.77
2018-11-03T17:30:03.044Z,14.43
2018-11-03T17:35:07.681Z,12.83
2018-11-03T17:40:12.227Z,11.90
2018-11-03T17:45:16.492Z,9.78
2018-11-03T17:50:20.780Z,9.45
2018-11-03T17:55:25.359Z,8.88
2018-11-03T18:00:29.787Z,7.90
2018-11-03T18:05:33.768Z,7.17
2018-11-03T18:10:38.266Z,7.20
2018-11-03T18:15:42.474Z,6.10
2018-11-03T18:20:46.706Z,6.00
2018-11-03T18:25:51.701Z,6.05
2018-11-03T18:30:58.207Z,6.03
2018-11-03T18:36:02.923Z,6.03
2018-11-03T18:41:07.605Z,6.30
2018-11-03T18:46:11.944Z,5.80
2018-11-03T18:51:16.451Z,6.10
2018-11-03T18:56:21.062Z,5.95
2018-11-03T19:01:25.261Z,6.40
2018-11-03T19:06:29.431Z,6.30
2018-11-03T19:11:33.963Z,6.05
2018-11-03T19:16:38.765Z,6.80
2018-11-03T19:21:43.164Z,6.80
2018-11-03T19:26:47.565Z,6.83
2018-11-03T19:31:52.541Z,6.72
2018-11-03T19:36:57.777Z,7.80
2018-11-03T19:42:03.077Z,7.97
2018-11-03T19:47:07.501Z,7.83
2018-11-03T19:52:11.945Z,8.40
2018-11-03T19:57:16.652Z,8.37
2018-11-03T20:02:21.560Z,8.68
2018-11-03T20:07:25.854Z,8.80
2018-11-03T20:12:30.296Z,9.50
2018-11-03T20:17:34.417Z,10.17
2018-11-03T20:22:38.835Z,10.03
2018-11-03T20:27:42.978Z,10.30
2018-11-03T20:32:48.476Z,11.90
2018-11-03T20:37:52.607Z,12.10
2018-11-03T20:42:56.739Z,12.93
2018-11-03T20:48:00.914Z,14.40
2018-11-03T20:53:05.408Z,12.78
2018-11-03T20:58:09.844Z,14.27
2018-11-03T21:03:14.233Z,14.77
2018-11-03T21:08:18.883Z,15.20
2018-11-03T21:13:23.024Z,14.98
2018-11-03T21:18:27.242Z,14.60
2018-11-03T21:23:31.674Z,14.47
2018-11-03T21:28:36.273Z,14.47
2018-11-03T21:33:40.426Z,14.70
2018-11-03T21:38:45.153Z,14.17
2018-11-03T21:43:49.468Z,14.17
2018-11-03T21:48:53.656Z,14.30
2018-11-03T21:53:58.073Z,14.73
2018-11-03T21:59:02.177Z,14.17
2018-11-03T22:04:06.705Z,14.23
2018-11-03T22:09:12.461Z,14.13
2018-11-03T22:14:17.238Z,14.10
2018-11-03T22:19:21.372Z,13.05
2018-11-03T22:24:25.757Z,13.07
2018-11-03T22:29:29.932Z,13.55
2018-11-03T22:34:34.088Z,12.30
2018-11-03T22:39:38.278Z,13.63
2018-11-03T22:44:42.523Z,13.00
2018-11-03T22:49:47.015Z,13.50
2018-11-03T22:54:51.206Z,13.60
2018-11-03T22:59:55.439Z,12.80
2018-11-03T23:04:59.663Z,13.03
2018-11-03T23:10:03.892Z,13.75
2018-11-03T23:15:08.929Z,12.47
2018-11-03T23:20:14.299Z,13.25
2018-11-03T23:25:18.579Z,11.80
2018-11-03T23:30:22.811Z,12.20
2018-11-03T23:35:27.276Z,11.93
2018-11-03T23:40:32.223Z,11.57
2018-11-03T23:45:37.317Z,12.33
2018-11-03T23:50:41.540Z,11.60
2018-11-03T23:55:45.750Z,12.25
